aviador You're here:

KVTP Decoded Metar

LA VETA PASS in CO, USA
Report Time2017-09-25 20:26:00
UTC Time2017-09-25 20:27:32
Flight Rules lifr LIFR
Wind020° at 11 kt
W.Rank020° ranks 14
Current wind is above 020° avg. (6.8)
Visibility402 m
Phenomena:Light Drizzle
Clouds:Overcast 001 Hf
Expected CloudBase > 400 ft AGL from Temp-Dew spread
Ceiling100 ft
Temp04°C (ISA +9)
Dew Point03°C (93% RH)
AAT-1.5°C
QNH1025 hPa
Density Alt11,027 ft
Elevation10,217 ft
Report Wrong Elevation
Raw Report
METAR KVTP 252026Z AUTO 02011KT M1/4SM -DZ OVC001 04/03 A3027 RMK AO2
P0001 LTG DSNT S=

Extra information for KVTP:More info

Metar Taf Metar & Taf Last 4 Metars F.Rules Stats Wind Profile Meteogram Temp Stats Airport Information Weather charts Add Link Nearby VenuesMetar ALERT Operation Metar Decoded Social comments

AIRNAV info for KVTP